Time;durP1;ratioP1;P1;durP2;ratioP2;P2;SDS_P1;SDS_P2;PMS_P1;PMS_P2;Temp;Humidity;BMP_temperature;BMP_pressure;BME280_temperature;BME280_humidity;BME280_pressure;Samples;Min_cycle;Max_cycle;Signal;HPM_P1;HPM_P2
2022/11/02 00:01:19;;;;;;;100.75;94.55;;;;;;;15.23;72.83;101471.63;4986179;28;102640;-53
2022/11/02 00:03:46;;;;;;;107.45;100.93;;;;;;;15.23;73.16;101482.56;4989763;28;102254;-53
2022/11/02 00:06:12;;;;;;;106.82;100.30;;;;;;;15.23;72.63;101477.09;4979891;28;104009;-53
2022/11/02 00:08:40;;;;;;;104.22;98.03;;;;;;;15.25;72.84;101477.63;4990569;28;102289;-53
2022/11/02 00:11:07;;;;;;;109.78;103.15;;;;;;;15.23;73.14;101475.16;4983357;28;102257;-53
2022/11/02 00:13:34;;;;;;;105.65;99.25;;;;;;;15.24;73.19;101462.28;4990997;28;102153;-53
2022/11/02 00:16:01;;;;;;;104.93;98.63;;;;;;;15.23;73.31;101457.91;4995795;28;103892;-53
2022/11/02 00:18:32;;;;;;;104.25;98.15;;;;;;;15.23;72.89;101452.41;4993192;28;101876;-53
2022/11/02 00:21:00;;;;;;;102.53;96.18;;;;;;;15.23;72.97;101444.19;4978260;28;102408;-54
2022/11/02 00:23:27;;;;;;;110.37;103.90;;;;;;;15.22;73.49;101431.56;4980275;28;102459;-53
2022/11/02 00:25:56;;;;;;;97.22;91.22;;;;;;;15.23;73.28;101416.78;4984787;28;104008;-53
2022/11/02 00:28:23;;;;;;;109.27;102.73;;;;;;;15.22;72.92;101421.44;4996246;28;102578;-53
2022/11/02 00:30:50;;;;;;;104.88;98.70;;;;;;;15.22;73.23;101412.38;4995715;28;102373;-53
2022/11/02 00:33:16;;;;;;;106.05;99.70;;;;;;;15.24;73.36;101418.41;4996697;28;102224;-53
2022/11/02 00:35:45;;;;;;;107.70;101.40;;;;;;;15.22;72.75;101405.00;4988655;28;103763;-53
2022/11/02 00:38:11;;;;;;;106.78;100.47;;;;;;;15.23;73.20;101408.53;4975798;28;101997;-53
2022/11/02 00:40:38;;;;;;;108.25;101.90;;;;;;;15.23;73.16;101401.13;4985973;28;102128;-53
2022/11/02 00:43:05;;;;;;;101.43;95.47;;;;;;;15.23;73.01;101408.53;4989596;28;102611;-53
2022/11/02 00:45:32;;;;;;;99.97;94.18;;;;;;;15.22;73.01;101404.13;4984943;28;104203;-53
2022/11/02 00:47:58;;;;;;;100.93;94.88;;;;;;;15.23;72.70;101408.53;4989713;28;102518;-53
2022/11/02 00:50:25;;;;;;;104.95;98.80;;;;;;;15.22;73.11;101404.13;4981753;28;102229;-53
2022/11/02 00:52:53;;;;;;;105.07;98.97;;;;;;;15.22;73.06;101398.66;4996677;28;102528;-53
2022/11/02 00:55:20;;;;;;;100.10;94.03;;;;;;;15.22;73.10;101390.44;4975801;28;104070;-53
2022/11/02 00:57:47;;;;;;;105.57;99.38;;;;;;;15.22;73.40;101387.69;4976093;28;102179;-53
2022/11/02 01:00:15;;;;;;;109.75;103.30;;;;;;;15.22;73.03;101388.53;4974985;28;102029;-53
2022/11/02 01:02:42;;;;;;;103.22;97.13;;;;;;;15.21;73.07;101386.06;4976588;28;102208;-53
2022/11/02 01:05:09;;;;;;;104.22;98.15;;;;;;;15.22;73.28;101382.22;4976257;28;104043;-53
2022/11/02 01:07:36;;;;;;;100.63;94.88;;;;;;;15.22;72.97;101385.78;4995975;28;102656;-53
2022/11/02 01:10:05;;;;;;;98.75;92.95;;;;;;;15.22;73.34;101379.47;4985166;28;102715;-53
2022/11/02 01:12:31;;;;;;;101.90;96.05;;;;;;;15.22;73.14;101371.25;4985513;28;102412;-53
2022/11/02 01:14:57;;;;;;;99.18;93.47;;;;;;;15.22;73.41;101365.75;4979798;28;104090;-53
2022/11/02 01:17:27;;;;;;;98.13;92.38;;;;;;;15.21;73.51;101367.69;4980398;28;102025;-53
2022/11/02 01:19:53;;;;;;;105.00;98.80;;;;;;;15.21;73.04;101361.38;4976063;28;102140;-53
2022/11/02 01:22:20;;;;;;;101.47;95.45;;;;;;;15.22;73.21;101360.28;4976556;28;102115;-53
2022/11/02 01:24:47;;;;;;;98.82;93.05;;;;;;;15.22;73.26;101354.78;4988858;28;103905;-53
2022/11/02 01:27:15;;;;;;;99.65;93.95;;;;;;;15.22;73.45;101357.53;4988616;28;102342;-53
2022/11/02 01:29:42;;;;;;;103.60;97.55;;;;;;;15.21;73.18;101348.50;4986206;28;102423;-53
2022/11/02 01:32:08;;;;;;;97.53;91.90;;;;;;;15.22;73.03;101360.28;4995654;28;102671;-53
2022/11/02 01:34:36;;;;;;;102.75;96.90;;;;;;;15.22;73.31;101347.41;4987516;28;104120;-53
2022/11/02 01:37:02;;;;;;;101.30;95.18;;;;;;;15.22;73.14;101339.19;4977855;28;102420;-53
2022/11/02 01:39:29;;;;;;;102.40;96.57;;;;;;;15.22;73.26;101343.81;4983396;28;102142;-53
2022/11/02 01:41:55;;;;;;;100.43;94.72;;;;;;;15.22;73.42;101338.34;4990450;28;102551;-53
2022/11/02 01:44:28;;;;;;;106.07;100.07;;;;;;;15.22;73.23;101343.81;4974130;28;103854;-53
2022/11/02 01:47:00;;;;;;;97.57;92.00;;;;;;;15.22;73.56;101341.06;4975780;28;102532;-53
2022/11/02 01:49:30;;;;;;;101.32;95.57;;;;;;;15.22;73.18;101343.81;4974664;28;102045;-53
2022/11/02 01:52:01;;;;;;;93.55;88.22;;;;;;;15.22;73.15;101338.34;4975785;28;102357;-53
2022/11/02 01:54:31;;;;;;;99.10;93.45;;;;;;;15.22;73.27;101343.81;4975634;28;103922;-53
2022/11/02 01:57:03;;;;;;;99.38;93.65;;;;;;;15.22;73.01;101339.19;4979014;28;102362;-53
2022/11/02 01:59:35;;;;;;;103.80;97.97;;;;;;;15.23;73.50;101337.25;4994001;28;102571;-53
2022/11/02 02:02:08;;;;;;;92.90;87.63;;;;;;;15.21;73.36;101332.03;4977014;28;102282;-53
2022/11/02 02:04:36;;;;;;;98.55;92.97;;;;;;;15.22;73.41;101332.84;4976955;28;104272;-53
2022/11/02 02:07:03;;;;;;;96.05;90.57;;;;;;;15.23;73.47;101331.78;4988872;28;102291;-53
2022/11/02 02:09:29;;;;;;;95.30;89.95;;;;;;;15.23;73.13;101334.50;4976365;28;102571;-53
2022/11/02 02:11:57;;;;;;;99.03;93.45;;;;;;;15.22;73.01;101332.84;4976179;28;102227;-53
2022/11/02 02:14:24;;;;;;;98.35;92.90;;;;;;;15.22;73.39;101328.22;4985452;28;103885;-53
2022/11/02 02:17:13;;;;;;;99.97;94.20;;;;;;;15.21;73.17;101326.56;4977415;28;102245;-53
2022/11/02 02:19:51;;;;;;;94.47;89.07;;;;;;;15.22;73.08;101328.22;4973674;28;102389;-53
2022/11/02 02:22:46;;;;;;;103.32;97.47;;;;;;;15.22;73.74;101335.59;4976102;28;102218;-53
2022/11/02 02:25:25;;;;;;;95.20;89.85;;;;;;;15.21;73.47;101326.56;4974013;28;103973;-53
2022/11/02 02:28:05;;;;;;;106.03;100.05;;;;;;;15.20;73.34;101322.19;4974894;28;102017;-53
2022/11/02 02:30:39;;;;;;;98.75;93.05;;;;;;;15.21;73.48;101314.78;4987641;28;102049;-53
2022/11/02 02:33:10;;;;;;;102.82;97.03;;;;;;;15.22;73.48;101316.41;4975388;28;102545;-53
2022/11/02 02:35:42;;;;;;;90.88;85.75;;;;;;;15.22;73.60;101317.25;4974185;28;104176;-53
2022/11/02 02:38:13;;;;;;;97.10;91.57;;;;;;;15.22;73.28;101305.44;4975386;28;102631;-53
2022/11/02 02:40:47;;;;;;;96.88;91.45;;;;;;;15.20;73.41;101303.00;4974515;28;102531;-53
2022/11/02 02:43:20;;;;;;;102.35;96.70;;;;;;;15.21;73.61;101298.31;4990463;28;102174;-53
2022/11/02 02:46:10;;;;;;;97.50;92.05;;;;;;;15.21;73.89;101295.59;4984268;28;108546;-53
2022/11/02 02:48:41;;;;;;;92.60;87.30;;;;;;;15.20;73.67;101303.00;4988273;28;102364;-53
2022/11/02 02:51:11;;;;;;;101.20;95.63;;;;;;;15.20;73.78;101297.50;4973933;28;102311;-53
2022/11/02 02:53:41;;;;;;;91.35;86.18;;;;;;;15.21;73.38;101292.84;4983308;28;102275;-53
2022/11/02 02:56:09;;;;;;;95.15;89.90;;;;;;;15.22;73.23;101294.47;4993588;28;103907;-53
2022/11/02 02:58:44;;;;;;;97.57;92.03;;;;;;;15.21;73.49;101304.63;4987182;28;102503;-53
2022/11/02 03:01:12;;;;;;;98.35;92.75;;;;;;;15.20;73.66;101297.50;4976426;28;102071;-53
2022/11/02 03:03:41;;;;;;;92.68;87.47;;;;;;;15.21;73.68;101298.31;4977732;28;102038;-53
2022/11/02 03:06:17;;;;;;;104.43;98.75;;;;;;;15.21;73.41;101295.59;4979678;28;103962;-53
2022/11/02 03:08:51;;;;;;;91.00;85.93;;;;;;;15.21;73.40;101292.84;4989139;28;102292;-53
2022/11/02 03:11:20;;;;;;;98.22;92.85;;;;;;;15.22;73.75;101308.19;4989940;28;102228;-53
2022/11/02 03:13:55;;;;;;;;;;;;;;;15.21;73.50;101301.06;4983484;28;102038;-53
2022/11/02 03:16:39;;;;;;;99.50;94.07;;;;;;;15.20;73.84;101294.75;4991248;28;104128;-53
2022/11/02 03:19:17;;;;;;;89.60;84.65;;;;;;;15.20;73.88;101292.03;4982874;28;102210;-53
2022/11/02 03:21:52;;;;;;;97.80;92.35;;;;;;;15.21;73.89;101298.31;4993999;28;102598;-53
2022/11/02 03:24:28;;;;;;;92.28;87.20;;;;;;;15.21;73.38;101293.66;4979395;28;102600;-53
2022/11/02 03:27:07;;;;;;;96.50;91.25;;;;;;;15.21;73.64;101292.84;4989419;28;103893;-53
2022/11/02 03:29:41;;;;;;;94.30;89.20;;;;;;;15.22;73.32;101288.97;4984520;28;102148;-53
2022/11/02 03:32:12;;;;;;;93.82;88.72;;;;;;;15.21;73.31;101287.34;4977971;28;102208;-53
2022/11/02 03:34:41;;;;;;;95.10;89.88;;;;;;;15.22;73.29;101278.00;4978531;28;103087;-53
2022/11/02 03:37:14;;;;;;;96.82;91.40;;;;;;;15.21;73.54;101273.66;4983963;28;103988;-53
2022/11/02 03:39:45;;;;;;;93.10;88.00;;;;;;;15.21;73.66;101279.94;4983985;28;102402;-53
2022/11/02 03:42:15;;;;;;;93.00;87.95;;;;;;;15.22;73.62;101269.78;4992768;28;102175;-53
2022/11/02 03:44:44;;;;;;;109.60;103.65;;;;;;;15.22;73.83;101267.03;4982765;28;102627;-53
2022/11/02 03:47:14;;;;;;;98.50;93.18;;;;;;;15.20;73.34;101253.63;4988736;28;103717;-53
2022/11/02 03:49:43;;;;;;;95.22;90.03;;;;;;;15.21;73.79;101248.97;4984069;28;102329;-53
2022/11/02 03:52:14;;;;;;;97.40;92.13;;;;;;;15.19;73.81;101246.53;4989978;28;102741;-52
2022/11/02 03:54:44;;;;;;;94.20;89.13;;;;;;;15.21;73.48;101246.22;4988337;28;102205;-53
2022/11/02 03:57:18;;;;;;;92.82;87.80;;;;;;;15.20;73.63;101233.63;4976901;28;104027;-53
2022/11/02 03:59:46;;;;;;;93.20;88.18;;;;;;;15.20;73.58;101225.41;4976879;28;102312;-53
2022/11/02 04:02:14;;;;;;;90.47;85.47;;;;;;;15.20;74.04;101237.19;4977104;28;102051;-53
2022/11/02 04:04:49;;;;;;;95.40;90.07;;;;;;;15.20;73.78;101230.91;4988862;28;102430;-53
2022/11/02 04:07:20;;;;;;;94.75;89.65;;;;;;;15.21;73.90;101238.00;4986585;28;104586;-53
2022/11/02 04:09:48;;;;;;;90.13;85.28;;;;;;;15.22;73.64;101239.63;4995381;28;102004;-53
2022/11/02 04:15:04;;;;;;;89.78;84.85;;;;;;;15.21;73.61;101246.22;4993276;28;102227;-53
2022/11/02 04:20:19;;;;;;;84.18;79.63;;;;;;;15.22;73.36;101243.22;4977798;28;102676;-53
2022/11/02 04:25:31;;;;;;;89.68;84.88;;;;;;;15.21;73.85;101232.53;4989087;28;102572;-53
2022/11/02 04:28:06;;;;;;;98.65;93.25;;;;;;;15.22;73.95;101235.00;4992358;28;104146;-53
2022/11/02 04:30:34;;;;;;;91.55;86.65;;;;;;;15.22;73.92;101234.16;4992588;28;102150;-53
2022/11/02 04:35:46;;;;;;;86.97;82.25;;;;;;;15.22;73.63;101234.16;4980164;28;102394;-53
2022/11/02 04:43:44;;;;;;;95.90;90.72;;;;;;;15.22;73.51;101235.00;4987184;28;102216;-53
2022/11/02 04:46:12;;;;;;;89.85;85.05;;;;;;;15.21;73.64;101221.56;4988724;28;102498;-53
2022/11/02 04:48:39;;;;;;;87.47;82.63;;;;;;;15.23;73.57;101230.31;4985124;28;103717;-53
2022/11/02 04:51:05;;;;;;;90.15;85.28;;;;;;;15.21;73.66;101233.34;4982412;28;102143;-53
2022/11/02 04:53:31;;;;;;;96.63;91.30;;;;;;;15.22;73.84;101236.88;4993895;28;102443;-53
2022/11/02 04:55:58;;;;;;;87.38;82.63;;;;;;;15.23;73.93;101241.28;4986679;28;102150;-53
2022/11/02 04:58:25;;;;;;;88.85;84.15;;;;;;;15.23;73.64;101242.09;4989893;28;104011;-53
2022/11/02 05:00:51;;;;;;;92.47;87.50;;;;;;;15.23;73.96;101244.84;4979754;28;102264;-53
2022/11/02 05:03:19;;;;;;;93.90;88.88;;;;;;;15.22;73.63;101245.97;4988495;28;102490;-53
2022/11/02 05:05:46;;;;;;;91.47;86.37;;;;;;;15.22;73.81;101239.63;4977890;28;102336;-53
2022/11/02 05:08:12;;;;;;;88.28;83.50;;;;;;;15.23;73.82;101246.78;4989494;28;103661;-53
2022/11/02 05:10:39;;;;;;;97.57;92.20;;;;;;;15.24;73.78;101248.41;4991714;28;102848;-53
2022/11/02 05:13:05;;;;;;;90.88;86.10;;;;;;;15.24;73.69;101248.41;4985170;28;103124;-54
2022/11/02 05:15:32;;;;;;;97.00;91.82;;;;;;;15.23;73.79;101242.09;4978477;28;102383;-54
2022/11/02 05:18:01;;;;;;;88.85;84.10;;;;;;;15.23;73.72;101235.81;4983837;28;103715;-53
2022/11/02 05:20:30;;;;;;;88.05;83.38;;;;;;;15.23;73.92;101230.31;4984854;28;102274;-53
2022/11/02 05:22:57;;;;;;;93.40;88.43;;;;;;;15.23;73.97;101239.34;4984000;28;102758;-53
2022/11/02 05:25:23;;;;;;;94.57;89.65;;;;;;;15.24;73.97;101231.94;4994976;28;102196;-53
2022/11/02 05:27:50;;;;;;;84.88;80.28;;;;;;;15.23;73.75;101238.53;4993588;28;108302;-54
2022/11/02 05:30:17;;;;;;;90.75;85.82;;;;;;;15.24;73.62;101237.44;4984422;28;102329;-53
2022/11/02 05:32:43;;;;;;;90.63;85.72;;;;;;;15.24;73.73;101231.94;4987053;28;101999;-53
2022/11/02 05:35:09;;;;;;;88.13;83.32;;;;;;;15.24;73.92;101229.19;4983055;28;102193;-53
2022/11/02 05:37:38;;;;;;;92.05;87.13;;;;;;;15.23;73.95;101235.81;4979629;28;104120;-53
2022/11/02 05:40:07;;;;;;;81.28;76.82;;;;;;;15.25;73.65;101228.09;4988957;28;102164;-53
2022/11/02 05:42:33;;;;;;;90.35;85.60;;;;;;;15.24;73.82;101231.94;4980602;28;103601;-53
2022/11/02 05:45:00;;;;;;;91.72;86.85;;;;;;;15.25;73.75;101236.31;4990645;28;102522;-53
2022/11/02 05:47:27;;;;;;;97.25;92.15;;;;;;;15.24;73.78;101231.94;4987756;28;103706;-53
2022/11/02 05:49:53;;;;;;;82.63;78.18;;;;;;;15.24;73.64;101230.00;4987726;28;102181;-53
2022/11/02 05:52:20;;;;;;;85.95;81.18;;;;;;;15.26;73.82;101224.25;4985573;28;102163;-53
2022/11/02 05:54:48;;;;;;;90.40;85.63;;;;;;;15.27;73.86;101223.16;4992201;28;102497;-53
2022/11/02 05:57:16;;;;;;;90.67;85.80;;;;;;;15.27;74.42;101236.84;5004910;28;103488;-53
2022/11/02 05:59:42;;;;;;;97.47;92.25;;;;;;;15.28;74.43;101230.25;5003648;28;102425;-53
2022/11/02 06:02:09;;;;;;;94.82;89.88;;;;;;;15.27;74.19;101245.88;5006280;28;102073;-53
2022/11/02 06:04:35;;;;;;;94.10;89.10;;;;;;;15.29;73.87;101245.59;4999515;28;102628;-53
2022/11/02 06:07:03;;;;;;;90.13;85.35;;;;;;;15.29;74.00;101231.88;5008857;28;104052;-53
2022/11/02 06:09:30;;;;;;;88.73;83.90;;;;;;;15.27;73.99;101226.69;5000012;28;102483;-53
2022/11/02 06:11:58;;;;;;;94.05;89.07;;;;;;;15.28;74.05;101233.00;4994167;28;102386;-53
2022/11/02 06:14:27;;;;;;;91.40;86.60;;;;;;;15.29;74.20;101229.97;4995481;28;102577;-53
2022/11/02 06:16:53;;;;;;;89.57;84.85;;;;;;;15.28;74.04;101227.50;5006794;28;103921;-53
2022/11/02 06:19:20;;;;;;;87.20;82.60;;;;;;;15.30;74.16;101239.03;5003351;28;102824;-53
2022/11/02 06:21:47;;;;;;;95.93;90.78;;;;;;;15.30;73.92;101233.53;5009828;28;102266;-53
2022/11/02 06:24:14;;;;;;;83.53;79.00;;;;;;;15.29;74.44;101234.63;5008120;28;102132;-53
2022/11/02 06:26:41;;;;;;;91.03;86.18;;;;;;;15.30;73.92;101236.28;5004546;28;103820;-53
2022/11/02 06:29:09;;;;;;;93.80;88.90;;;;;;;15.29;73.87;101240.94;5010358;28;102473;-53
2022/11/02 06:31:37;;;;;;;90.40;85.55;;;;;;;15.29;74.00;101234.63;5013931;28;102176;-53
2022/11/02 06:34:04;;;;;;;97.13;91.97;;;;;;;15.30;74.25;101230.78;5015530;28;102131;-53
2022/11/02 06:36:32;;;;;;;89.75;84.95;;;;;;;15.29;73.86;101229.97;5005565;28;104248;-53
2022/11/02 06:38:58;;;;;;;88.82;84.18;;;;;;;15.29;74.03;101221.75;5010139;28;102514;-53
2022/11/02 06:41:25;;;;;;;94.95;89.88;;;;;;;15.30;74.19;101222.56;5007950;28;102056;-53
2022/11/02 06:43:51;;;;;;;81.82;77.35;;;;;;;15.30;74.17;101220.63;5009103;28;102615;-53
2022/11/02 06:46:20;;;;;;;88.80;83.85;;;;;;;15.30;73.98;101211.59;5004431;28;104000;-53
2022/11/02 06:48:47;;;;;;;91.47;86.63;;;;;;;15.31;74.33;101213.22;5010434;28;102492;-53
2022/11/02 06:51:14;;;;;;;93.60;88.38;;;;;;;15.31;73.91;101218.72;5007034;28;103994;-53
2022/11/02 06:53:41;;;;;;;92.35;87.28;;;;;;;15.31;73.91;101216.78;5003793;28;102148;-53
2022/11/02 06:56:08;;;;;;;89.55;84.72;;;;;;;15.32;73.85;101214.84;4996320;28;103898;-53
2022/11/02 06:58:35;;;;;;;91.93;86.93;;;;;;;15.32;74.12;101212.09;4997938;28;101974;-53
2022/11/02 07:01:03;;;;;;;89.80;84.90;;;;;;;15.33;74.02;101216.50;4997367;28;102425;-53
2022/11/02 07:03:31;;;;;;;87.78;83.05;;;;;;;15.34;73.66;101221.69;4998452;28;102211;-53
2022/11/02 07:05:58;;;;;;;90.03;84.97;;;;;;;15.35;73.70;101217.00;5005269;28;104289;-54
2022/11/02 07:08:26;;;;;;;97.32;92.05;;;;;;;15.35;73.89;101217.00;5011567;28;102266;-53
2022/11/02 07:10:52;;;;;;;89.75;84.93;;;;;;;15.35;73.67;101223.31;5001675;28;102070;-53
2022/11/02 07:13:21;;;;;;;96.72;91.45;;;;;;;15.38;73.57;101221.91;4998563;28;102488;-53
2022/11/02 07:15:51;;;;;;;87.18;82.38;;;;;;;15.37;73.66;101223.03;4996886;28;103628;-53
2022/11/02 07:18:17;;;;;;;90.20;85.25;;;;;;;15.38;73.71;101221.91;5002215;28;102826;-53
2022/11/02 07:20:47;;;;;;;97.45;92.22;;;;;;;15.38;73.87;101221.91;5005107;28;102369;-53
2022/11/02 07:23:13;;;;;;;89.05;84.22;;;;;;;15.41;73.63;101226.00;5014683;28;102344;-53
2022/11/02 07:25:41;;;;;;;90.07;85.23;;;;;;;15.40;73.83;101225.19;5012678;28;104186;-53
2022/11/02 07:28:08;;;;;;;90.55;85.57;;;;;;;15.42;73.73;101222.97;5011183;28;102141;-53
2022/11/02 07:30:38;;;;;;;99.75;94.28;;;;;;;15.42;73.81;101217.47;5004312;28;102268;-53
2022/11/02 07:33:05;;;;;;;90.53;85.65;;;;;;;15.43;73.83;101213.63;5006127;28;102245;-53
2022/11/02 07:35:34;;;;;;;;;;;;;;;15.44;73.48;101208.97;5017052;28;103870;-53
2022/11/02 07:38:03;;;;;;;81.68;77.30;;;;;;;15.43;73.58;101199.91;5017199;28;102121;-53
2022/11/02 07:40:32;;;;;;;86.03;81.25;;;;;;;15.44;73.56;101198.81;4998702;28;102440;-53
2022/11/02 07:42:59;;;;;;;85.13;80.47;;;;;;;15.44;73.92;101198.81;5008289;28;102253;-53
2022/11/02 07:45:28;;;;;;;91.10;86.28;;;;;;;15.47;73.70;101198.25;5008528;28;104028;-53
2022/11/02 07:47:54;;;;;;;90.88;85.70;;;;;;;15.47;73.54;101200.97;5006926;28;102360;-53
2022/11/02 07:50:23;;;;;;;89.68;84.70;;;;;;;15.46;73.48;101196.59;5004699;28;101963;-53
2022/11/02 07:52:52;;;;;;;90.78;85.88;;;;;;;15.47;73.63;101191.91;4998462;28;102467;-53
2022/11/02 07:55:26;;;;;;;90.18;85.22;;;;;;;15.49;73.49;101196.00;5006939;28;104017;-53
2022/11/02 07:57:53;;;;;;;95.68;90.47;;;;;;;15.48;73.49;101188.09;5005114;28;102176;-53
2022/11/02 08:00:20;;;;;;;88.38;83.60;;;;;;;15.48;73.81;101188.09;4999119;28;102432;-53
2022/11/02 08:02:47;;;;;;;84.40;79.85;;;;;;;15.50;73.56;101186.66;4997156;28;102205;-53
2022/11/02 08:05:14;;;;;;;90.78;85.82;;;;;;;15.49;73.97;101190.53;5000781;28;103949;-53
2022/11/02 08:07:41;;;;;;;89.00;84.22;;;;;;;15.50;73.93;101189.41;5014384;28;102235;-53
2022/11/02 08:10:08;;;;;;;85.18;80.53;;;;;;;15.50;73.53;101191.34;4996723;28;102846;-53
2022/11/02 08:12:36;;;;;;;91.35;86.35;;;;;;;15.50;73.84;101175.69;4997066;28;102286;-53
2022/11/02 08:15:06;;;;;;;92.47;87.32;;;;;;;15.49;73.70;101174.06;5008448;28;103909;-53
2022/11/02 08:17:33;;;;;;;88.18;83.38;;;;;;;15.50;73.65;101181.19;5016887;28;102689;-53
2022/11/02 08:19:59;;;;;;;87.53;82.60;;;;;;;15.51;73.86;101180.09;5011208;28;102352;-53
2022/11/02 08:22:26;;;;;;;88.43;83.60;;;;;;;15.51;73.61;101182.00;5004507;28;102599;-53
2022/11/02 08:24:52;;;;;;;89.55;84.55;;;;;;;15.53;73.50;101177.84;5013362;28;103989;-53
2022/11/02 08:27:19;;;;;;;86.40;81.72;;;;;;;15.54;73.72;101176.75;5013657;28;102402;-53
2022/11/02 08:29:47;;;;;;;93.38;88.15;;;;;;;15.55;73.86;101172.91;5007653;28;102535;-53
2022/11/02 08:32:14;;;;;;;90.38;85.57;;;;;;;15.54;73.63;101165.78;5015954;28;102586;-53
2022/11/02 08:34:41;;;;;;;85.70;81.03;;;;;;;15.54;73.83;101154.81;5013181;28;103955;-52
2022/11/02 08:37:07;;;;;;;87.13;82.40;;;;;;;15.54;73.46;101146.59;5011668;28;102008;-53
2022/11/02 08:39:34;;;;;;;95.28;90.10;;;;;;;15.54;73.59;101145.75;5014149;28;102466;-53
2022/11/02 08:42:01;;;;;;;90.45;85.50;;;;;;;15.52;73.63;101148.78;5014433;28;102527;-53
2022/11/02 08:44:28;;;;;;;87.97;83.10;;;;;;;15.54;73.40;101143.84;5008644;28;104236;-53
2022/11/02 08:46:56;;;;;;;90.50;85.57;;;;;;;15.56;73.74;101138.06;5008555;28;102302;-53
2022/11/02 08:49:22;;;;;;;87.35;82.55;;;;;;;15.57;73.64;101142.41;5006049;28;102432;-53
2022/11/02 08:51:49;;;;;;;87.78;82.95;;;;;;;15.57;73.33;101143.22;5003759;28;103554;-53
2022/11/02 08:54:15;;;;;;;96.53;91.32;;;;;;;15.59;73.20;101135.53;5006544;28;104011;-53
2022/11/02 08:56:42;;;;;;;93.72;88.60;;;;;;;15.59;73.33;101135.53;5009944;28;102265;-53
2022/11/02 08:59:08;;;;;;;88.88;84.03;;;;;;;15.61;73.65;101132.47;5011891;28;102234;-53
2022/11/02 09:01:37;;;;;;;88.70;83.88;;;;;;;15.62;73.29;101129.47;5010591;28;102609;-53
2022/11/02 09:04:05;;;;;;;92.85;87.68;;;;;;;15.62;73.40;101123.97;5009357;28;103814;-53
2022/11/02 09:06:32;;;;;;;83.63;78.97;;;;;;;15.62;73.41;101129.47;5013389;28;102201;-53
2022/11/02 09:08:58;;;;;;;91.90;86.88;;;;;;;15.65;73.33;101127.22;5011089;28;102050;-53
2022/11/02 09:11:25;;;;;;;96.50;91.25;;;;;;;15.65;73.56;101121.72;5015446;28;103067;-52
2022/11/02 09:13:56;;;;;;;84.72;80.03;;;;;;;15.65;73.57;101121.72;5007036;28;104135;-53
2022/11/02 09:16:23;;;;;;;91.80;86.72;;;;;;;15.66;73.21;101117.94;5011710;28;102753;-53
2022/11/02 09:18:49;;;;;;;94.60;89.25;;;;;;;15.66;73.19;101123.41;5007299;28;102351;-53
2022/11/02 09:21:18;;;;;;;94.65;89.40;;;;;;;15.66;73.18;101115.19;5011590;28;102584;-53
2022/11/02 09:23:47;;;;;;;88.60;83.70;;;;;;;15.66;73.46;101110.50;5014253;28;103986;-53
2022/11/02 09:26:13;;;;;;;;;;;;;;;15.66;73.73;101106.97;5014260;28;102218;-53
2022/11/02 09:28:41;;;;;;;84.60;79.78;;;;;;;15.66;73.81;101106.97;5013914;28;102441;-53
2022/11/02 09:31:08;;;;;;;90.15;85.00;;;;;;;15.66;73.31;101112.44;5009152;28;102198;-53
2022/11/02 09:33:36;;;;;;;85.93;81.20;;;;;;;15.67;73.22;101103.09;5006908;28;103977;-53
2022/11/02 09:36:04;;;;;;;95.32;89.93;;;;;;;15.67;73.30;101103.91;5008678;28;102550;-57
2022/11/02 09:38:32;;;;;;;98.60;93.20;;;;;;;15.68;73.39;101093.75;5009490;28;102488;-53
2022/11/02 09:41:12;;;;;;;92.38;87.18;;;;;;;15.69;73.20;101092.66;5006956;28;102517;-53
2022/11/02 09:43:53;;;;;;;92.38;87.13;;;;;;;15.69;73.75;101089.91;5005933;28;103970;-53
2022/11/02 09:46:24;;;;;;;87.47;82.68;;;;;;;15.69;73.33;101078.94;5011697;28;102087;-53
2022/11/02 09:48:55;;;;;;;92.43;87.28;;;;;;;15.69;73.05;101085.22;5013755;28;104420;-53
2022/11/02 09:51:25;;;;;;;95.68;90.15;;;;;;;15.67;73.06;101076.47;5010594;28;102313;-53
2022/11/02 09:54:01;;;;;;;93.10;87.88;;;;;;;15.67;73.39;101086.63;5008309;28;104077;-53
2022/11/02 09:56:30;;;;;;;91.57;86.25;;;;;;;15.68;72.99;101077.28;5012477;28;102033;-53
2022/11/02 09:59:00;;;;;;;92.90;87.80;;;;;;;15.67;73.20;101075.66;5004022;28;102220;-53
2022/11/02 10:01:41;;;;;;;87.22;82.38;;;;;;;15.68;73.39;101077.28;5011850;28;102170;-53
2022/11/02 10:04:40;;;;;;;95.93;90.70;;;;;;;15.69;73.39;101081.69;5011556;28;104031;-53
2022/11/02 10:07:10;;;;;;;;;;;;;;;15.69;72.98;101070.69;5001194;28;102565;-53
2022/11/02 10:09:48;;;;;;;84.82;80.10;;;;;;;15.68;73.39;101071.78;5014312;28;102262;-53
2022/11/02 10:12:22;;;;;;;87.28;82.38;;;;;;;15.69;73.00;101056.97;5007480;28;102321;-53
2022/11/02 10:14:58;;;;;;;92.38;87.28;;;;;;;15.68;73.34;101066.31;5014058;28;103882;-53
2022/11/02 10:17:33;;;;;;;91.95;86.65;;;;;;;15.65;73.43;101066.84;5015490;28;102555;-53
2022/11/02 10:20:06;;;;;;;93.50;88.32;;;;;;;15.66;73.03;101057.56;5017828;28;102791;-53
2022/11/02 10:22:39;;;;;;;94.38;89.10;;;;;;;15.65;73.17;101042.16;5017016;28;102649;-54
2022/11/02 10:25:14;;;;;;;100.35;94.82;;;;;;;15.65;73.18;101053.97;5003768;28;103848;-54
2022/11/02 10:27:43;;;;;;;89.93;84.75;;;;;;;15.65;73.19;101044.91;5007665;28;103741;-54
2022/11/02 10:30:14;;;;;;;86.90;82.00;;;;;;;15.65;73.23;101050.41;5007650;28;102929;-54
2022/11/02 10:32:42;;;;;;;97.38;91.93;;;;;;;15.65;72.97;101047.66;5008352;28;102340;-54
2022/11/02 10:35:17;;;;;;;89.80;84.80;;;;;;;15.65;72.86;101050.41;5016958;28;103888;-54
2022/11/02 10:37:56;;;;;;;94.68;89.45;;;;;;;15.63;73.18;101043.28;5016905;28;101925;-54
2022/11/02 10:40:33;;;;;;;;;;;;;;;15.63;72.91;101048.78;5016072;28;102608;-54
2022/11/02 10:43:14;;;;;;;86.38;81.50;;;;;;;15.62;73.22;101036.19;5014146;28;102429;-53
2022/11/02 10:46:06;;;;;;;92.10;86.80;;;;;;;15.61;73.08;101034.56;5004926;28;104088;-54
2022/11/02 10:48:46;;;;;;;89.70;84.63;;;;;;;15.62;72.98;101038.13;5013260;28;102142;-54
2022/11/02 10:51:16;;;;;;;93.50;88.22;;;;;;;15.62;73.09;101041.66;5013086;28;102008;-54
2022/11/02 10:53:44;;;;;;;91.50;86.30;;;;;;;15.63;73.14;101037.00;5018044;28;102295;-54
2022/11/02 10:56:18;;;;;;;90.83;85.67;;;;;;;15.62;72.90;101029.88;5013866;28;103990;-53
2022/11/02 10:58:56;;;;;;;98.07;92.43;;;;;;;15.59;72.75;101031.28;5013482;28;102328;-54
2022/11/02 11:01:23;;;;;;;82.40;77.75;;;;;;;15.61;72.89;101028.22;5016941;28;102254;-54
2022/11/02 11:03:56;;;;;;;92.50;87.28;;;;;;;15.61;73.31;101025.47;5012166;28;102543;-54
2022/11/02 11:06:24;;;;;;;90.30;85.18;;;;;;;15.61;72.92;101028.22;5013287;28;103901;-54
2022/11/02 11:08:52;;;;;;;92.95;87.68;;;;;;;15.60;73.20;101032.91;5016845;28;101906;-54
2022/11/02 11:11:23;;;;;;;89.65;84.60;;;;;;;15.61;73.14;101028.22;5015802;28;102155;-54
2022/11/02 11:13:56;;;;;;;89.00;83.88;;;;;;;15.60;73.39;101027.41;5007448;28;102193;-54
2022/11/02 11:16:38;;;;;;;87.32;82.13;;;;;;;15.62;73.24;101021.66;5006286;28;104201;-54
2022/11/02 11:19:17;;;;;;;90.75;85.55;;;;;;;15.61;72.80;101029.06;5008079;28;102370;-54
2022/11/02 11:21:44;;;;;;;93.60;88.20;;;;;;;15.61;72.93;101018.09;5005953;28;103720;-54
2022/11/02 11:24:22;;;;;;;86.43;81.53;;;;;;;15.61;72.88;101033.72;5010981;28;103057;-54
2022/11/02 11:27:14;;;;;;;90.15;84.97;;;;;;;15.60;73.03;101019.19;4972264;28;104135;-54
2022/11/02 11:29:47;;;;;;;93.80;88.35;;;;;;;15.59;72.85;101025.78;4971157;28;102379;-54